Time;durP1;ratioP1;P1;durP2;ratioP2;P2;SDS_P1;SDS_P2;PMS_P1;PMS_P2;Temp;Humidity;BMP_temperature;BMP_pressure;BME280_temperature;BME280_humidity;BME280_pressure;Samples;Min_cycle;Max_cycle;Signal;HPM_P1;HPM_P2
2022/12/15 00:40:32;;;;;;;47.37;32.03;;;;;;;-0.52;100.00;98085.47;6245190;23;20232;-79
2022/12/15 00:42:58;;;;;;;44.40;30.63;;;;;;;-0.52;100.00;98079.38;6244580;23;20211;-79
2022/12/15 00:46:53;;;;;;;45.13;30.90;;;;;;;-0.50;100.00;98078.19;6244866;23;20262;-79
2022/12/15 00:48:12;;;;;;;43.07;29.90;;;;;;;-0.58;100.00;98088.81;6243972;23;20665;-79
2022/12/15 00:50:51;;;;;;;46.43;31.20;;;;;;;-0.53;100.00;98096.16;6244970;23;20231;-79
2022/12/15 01:21:05;;;;;;;44.97;30.90;;;;;;;-0.34;100.00;98129.75;6243764;23;20661;-78
2022/12/15 01:23:32;;;;;;;43.47;29.70;;;;;;;-0.40;100.00;98114.72;6194040;23;20262;-79
2022/12/15 01:25:59;;;;;;;45.60;31.40;;;;;;;-0.38;100.00;98127.69;6246848;23;20711;-79
2022/12/15 01:28:26;;;;;;;46.87;30.13;;;;;;;-0.30;100.00;98130.19;6219322;23;20205;-78
2022/12/15 01:30:53;;;;;;;44.03;30.37;;;;;;;-0.29;100.00;98127.38;6246555;23;20205;-79
2022/12/15 01:33:20;;;;;;;42.40;30.90;;;;;;;-0.25;100.00;98123.38;6219806;23;20209;-78
2022/12/15 01:36:00;;;;;;;46.80;29.77;;;;;;;-0.22;100.00;98120.34;6220069;23;20291;-79
2022/12/15 01:38:27;;;;;;;44.40;29.63;;;;;;;-0.20;100.00;98117.53;6219923;23;20208;-78
2022/12/15 01:40:58;;;;;;;44.37;30.00;;;;;;;-0.22;100.00;98136.16;6220245;23;20276;-79
2022/12/15 01:43:29;;;;;;;43.90;30.63;;;;;;;-0.26;100.00;98129.63;6219695;23;20204;-79
2022/12/15 01:46:07;;;;;;;41.53;30.23;;;;;;;-0.19;100.00;98141.06;6246301;23;20684;-78
2022/12/15 01:48:36;;;;;;;44.90;30.30;;;;;;;-0.20;100.00;98154.41;6244732;23;20254;-78
2022/12/15 01:51:22;;;;;;;43.43;30.07;;;;;;;-0.14;100.00;98156.28;6244830;23;20283;-79
2022/12/15 01:53:54;;;;;;;44.30;30.47;;;;;;;-0.18;100.00;98150.56;6246110;23;20285;-79
2022/12/15 01:56:23;;;;;;;44.27;30.20;;;;;;;-0.17;100.00;98144.31;6219366;23;20212;-78
2022/12/15 01:58:52;;;;;;;45.27;30.97;;;;;;;-0.13;100.00;98148.19;6219695;23;20588;-79
2022/12/15 02:01:19;;;;;;;46.57;31.17;;;;;;;-0.13;100.00;98148.19;6219700;23;20299;-79
2022/12/15 02:03:47;;;;;;;45.40;29.97;;;;;;;-0.08;100.00;98158.16;6244587;23;20545;-79
2022/12/15 02:06:14;;;;;;;45.03;31.70;;;;;;;-0.11;100.00;98161.16;6245946;23;20723;-78
2022/12/15 02:08:44;;;;;;;45.07;30.80;;;;;;;-0.16;100.00;98159.09;6219836;23;20276;-79
2022/12/15 02:11:22;;;;;;;46.07;30.40;;;;;;;-0.15;100.00;98171.25;6204818;23;20721;-79
2022/12/15 02:14:06;;;;;;;45.83;31.43;;;;;;;-0.05;100.00;98168.31;6215882;23;20205;-79
2022/12/15 02:16:56;;;;;;;45.00;30.03;;;;;;;-0.05;100.00;98184.13;6214066;23;20228;-79
2022/12/15 02:19:57;;;;;;;48.13;32.30;;;;;;;-0.04;100.00;98180.47;6214726;23;20213;-78
2022/12/15 02:22:32;;;;;;;44.63;30.03;;;;;;;-0.04;100.00;98189.19;6188782;23;20221;-78
2022/12/15 02:24:59;;;;;;;47.27;32.27;;;;;;;-0.02;100.00;98205.63;6215709;23;20204;-79
2022/12/15 02:27:40;;;;;;;45.27;31.70;;;;;;;0.00;100.00;98203.59;6215958;23;20209;-80
2022/12/15 02:30:20;;;;;;;45.50;31.17;;;;;;;-0.06;100.00;98193.03;6215334;23;20255;-78
2022/12/15 02:32:46;;;;;;;45.60;31.17;;;;;;;0.00;100.00;98197.53;6215682;23;20263;-78
2022/12/15 02:35:19;;;;;;;46.43;32.50;;;;;;;0.04;100.00;98196.16;6215513;23;20213;-79
2022/12/15 02:37:46;;;;;;;44.17;31.57;;;;;;;0.07;100.00;98221.28;6189481;23;20211;-79
2022/12/15 02:40:15;;;;;;;43.87;30.57;;;;;;;0.00;100.00;98208.88;6215341;23;20680;-79
2022/12/15 02:42:50;;;;;;;47.03;32.30;;;;;;;0.07;100.00;98214.22;6215618;23;20245;-79
2022/12/15 02:45:32;;;;;;;42.63;29.67;;;;;;;0.06;100.00;98212.56;6215658;23;20209;-78
2022/12/15 02:48:11;;;;;;;46.43;31.33;;;;;;;0.05;100.00;98226.75;6189489;23;20284;-79
2022/12/15 02:50:49;;;;;;;45.43;30.77;;;;;;;0.09;100.00;98221.94;6202786;23;20213;-78
2022/12/15 02:53:28;;;;;;;45.43;31.40;;;;;;;0.14;100.00;98230.09;6214564;23;20259;-79
2022/12/15 02:56:25;;;;;;;43.77;30.33;;;;;;;0.12;100.00;98230.28;6215644;23;20716;-79
2022/12/15 02:58:51;;;;;;;48.33;32.50;;;;;;;0.15;100.00;98224.63;6238816;23;20210;-78
2022/12/15 03:01:25;;;;;;;47.37;31.70;;;;;;;0.08;100.00;98229.03;6215670;23;20232;-79
2022/12/15 03:03:52;;;;;;;43.83;31.13;;;;;;;0.09;100.00;98222.75;6215768;23;20292;-79
2022/12/15 03:06:19;;;;;;;47.70;31.33;;;;;;;0.22;100.00;98225.50;6213891;23;20205;-79
2022/12/15 03:08:46;;;;;;;44.77;31.00;;;;;;;0.14;100.00;98232.72;6214373;23;20210;-79
2022/12/15 03:11:12;;;;;;;45.90;32.00;;;;;;;0.12;100.00;98234.72;6214136;23;20280;-79
2022/12/15 03:13:39;;;;;;;46.70;31.47;;;;;;;0.07;100.00;98250.25;6215378;23;20531;-79
2022/12/15 03:16:06;;;;;;;45.37;31.57;;;;;;;0.02;100.00;98242.91;6213805;23;20280;-80
2022/12/15 03:18:33;;;;;;;47.40;31.97;;;;;;;0.07;100.00;98250.25;6214216;23;20209;-79
2022/12/15 03:20:59;;;;;;;46.57;31.43;;;;;;;0.08;100.00;98244.00;6215812;23;20209;-79
2022/12/15 03:23:26;;;;;;;43.70;31.20;;;;;;;0.08;100.00;98242.19;6215255;23;20205;-79
2022/12/15 03:25:54;;;;;;;43.73;30.70;;;;;;;0.11;100.00;98243.63;6188660;23;20305;-79
2022/12/15 03:28:21;;;;;;;46.37;32.00;;;;;;;0.06;100.00;98240.72;6214597;23;20229;-79
2022/12/15 03:30:48;;;;;;;47.17;32.03;;;;;;;0.06;100.00;98252.06;6215213;23;20288;-79
2022/12/15 03:33:16;;;;;;;46.17;32.77;;;;;;;0.03;100.00;98262.19;6238541;23;20674;-80
2022/12/15 03:35:43;;;;;;;45.73;31.67;;;;;;;0.02;100.00;98263.16;6214930;23;20284;-79
2022/12/15 03:38:10;;;;;;;47.70;33.27;;;;;;;0.01;100.00;98251.81;6214853;23;20280;-79
2022/12/15 03:40:36;;;;;;;47.97;31.83;;;;;;;-0.04;100.00;98265.53;6213664;23;20209;-79
2022/12/15 03:43:03;;;;;;;46.37;31.80;;;;;;;-0.02;100.00;98273.25;6215587;23;20310;-79
2022/12/15 03:45:30;;;;;;;51.07;33.63;;;;;;;0.00;100.00;98279.97;6215286;23;20209;-79
2022/12/15 03:47:57;;;;;;;47.97;32.23;;;;;;;0.00;100.00;98281.81;6215456;23;20208;-79
2022/12/15 03:50:26;;;;;;;44.90;31.43;;;;;;;-0.02;100.00;98281.16;6213228;23;20231;-80
2022/12/15 03:52:57;;;;;;;47.37;32.50;;;;;;;0.06;100.00;98272.31;6238591;23;20281;-81
2022/12/15 03:55:24;;;;;;;45.53;31.70;;;;;;;0.05;100.00;98286.50;6215200;23;20530;-79
2022/12/15 03:57:51;;;;;;;47.97;32.70;;;;;;;0.01;100.00;98286.06;6213696;23;20215;-78
2022/12/15 04:00:19;;;;;;;46.63;32.47;;;;;;;0.00;100.00;98287.88;6214680;23;20201;-78
2022/12/15 04:02:47;;;;;;;48.20;32.70;;;;;;;0.04;100.00;98301.50;6215099;23;20213;-79
2022/12/15 04:05:24;;;;;;;47.67;32.23;;;;;;;0.02;100.00;98302.66;6215566;23;20209;-79
2022/12/15 04:07:52;;;;;;;47.97;31.87;;;;;;;-0.01;100.00;98304.69;6215233;23;20205;-80
2022/12/15 04:10:19;;;;;;;47.17;32.63;;;;;;;-0.08;100.00;98308.22;6214348;23;20212;-79
2022/12/15 04:12:45;;;;;;;48.73;33.03;;;;;;;-0.06;100.00;98304.41;6188940;23;20264;-79
2022/12/15 04:15:13;;;;;;;46.97;31.80;;;;;;;0.01;100.00;98309.75;6215245;23;20210;-79
2022/12/15 04:17:40;;;;;;;50.27;33.33;;;;;;;0.08;100.00;98296.66;6215187;23;20699;-79
2022/12/15 04:20:10;;;;;;;47.93;32.27;;;;;;;0.03;100.00;98291.97;6212168;23;20276;-79
2022/12/15 04:22:38;;;;;;;49.23;33.03;;;;;;;0.01;100.00;98315.00;6214909;23;20220;-79
2022/12/15 05:34:27;;;;;;;44.50;31.00;;;;;;;-0.05;100.00;98357.91;6215718;23;20212;-79
2022/12/15 05:36:55;;;;;;;45.20;31.03;;;;;;;-0.07;100.00;98357.25;6216890;23;20217;-80
2022/12/15 05:39:23;;;;;;;44.47;31.37;;;;;;;-0.04;100.00;98359.50;6216899;23;20689;-79
2022/12/15 05:41:50;;;;;;;48.97;32.23;;;;;;;-0.02;100.00;98373.31;6207385;23;20189;-79
2022/12/15 05:44:17;;;;;;;48.03;32.43;;;;;;;-0.03;100.00;98374.31;6215886;23;20206;-80
2022/12/15 05:46:44;;;;;;;45.03;32.40;;;;;;;0.05;100.00;98374.22;6217896;23;20236;-79
2022/12/15 05:49:14;;;;;;;45.83;32.87;;;;;;;0.10;100.00;98360.50;6218322;23;20213;-80
2022/12/15 05:51:42;;;;;;;44.63;32.20;;;;;;;0.08;100.00;98365.97;6191503;23;20209;-80
2022/12/15 05:54:10;;;;;;;49.07;32.97;;;;;;;0.07;100.00;98393.28;6217045;23;20201;-79
2022/12/15 05:56:37;;;;;;;46.90;32.17;;;;;;;0.07;100.00;98389.84;6190526;23;20730;-79
2022/12/15 05:59:04;;;;;;;47.63;32.57;;;;;;;0.12;100.00;98385.66;6215633;23;20681;-79
2022/12/15 06:01:30;;;;;;;47.37;32.30;;;;;;;-0.04;100.00;98388.47;6215620;23;20225;-79
2022/12/15 06:03:58;;;;;;;47.80;32.67;;;;;;;-0.06;100.00;98399.22;6216967;23;20213;-79
2022/12/15 06:06:24;;;;;;;46.57;33.03;;;;;;;0.07;100.00;98398.56;6214962;23;20668;-79
2022/12/15 06:08:51;;;;;;;46.23;32.33;;;;;;;-0.11;100.00;98391.03;6215101;23;20966;-80
2022/12/15 06:11:18;;;;;;;46.90;31.93;;;;;;;-0.28;100.00;98402.72;6204571;23;20213;-80
2022/12/15 06:13:45;;;;;;;51.00;33.10;;;;;;;-0.39;100.00;98410.25;6191479;23;20231;-80
2022/12/15 06:16:17;;;;;;;50.33;33.77;;;;;;;-0.41;100.00;98426.22;6188939;23;20288;-79
2022/12/15 06:18:46;;;;;;;52.07;33.30;;;;;;;-0.42;100.00;98421.94;6190719;23;20240;-79
2022/12/15 06:21:26;;;;;;;46.23;32.33;;;;;;;-0.38;100.00;98417.97;6216693;23;20223;-79
2022/12/15 06:23:54;;;;;;;49.00;33.23;;;;;;;-0.35;100.00;98408.91;6191227;23;20661;-79
2022/12/15 06:26:24;;;;;;;54.03;35.93;;;;;;;-0.31;100.00;98413.63;6165527;23;20235;-80
2022/12/15 06:28:51;;;;;;;134.27;81.07;;;;;;;-0.25;100.00;98418.16;6216485;23;20233;-80
2022/12/15 06:31:21;;;;;;;60.40;38.77;;;;;;;-0.29;100.00;98413.44;6190432;23;20232;-79
2022/12/15 06:33:49;;;;;;;51.30;35.13;;;;;;;-0.31;100.00;98421.50;6216923;23;20678;-80
2022/12/15 06:36:24;;;;;;;53.10;37.90;;;;;;;-0.24;100.00;98440.88;6216475;23;20205;-80
2022/12/15 06:38:51;;;;;;;53.47;37.87;;;;;;;-0.22;100.00;98445.94;6189627;23;20288;-79
2022/12/15 06:41:20;;;;;;;56.70;42.70;;;;;;;-0.30;100.00;98441.56;6216662;23;20215;-79
2022/12/15 06:43:56;;;;;;;55.23;39.60;;;;;;;-0.33;100.00;98436.69;6216282;23;20763;-79
2022/12/15 06:46:24;;;;;;;50.80;34.00;;;;;;;-0.26;100.00;98456.00;6216890;23;20654;-79
2022/12/15 06:48:52;;;;;;;49.73;33.00;;;;;;;-0.27;100.00;98453.53;6190336;23;20236;-79
2022/12/15 06:51:19;;;;;;;48.60;33.13;;;;;;;-0.25;100.00;98459.47;6190534;23;20201;-80
2022/12/15 06:53:52;;;;;;;47.37;32.67;;;;;;;-0.19;100.00;98462.22;6165608;23;20601;-80
2022/12/15 06:56:28;;;;;;;48.20;34.17;;;;;;;-0.16;100.00;98466.28;6190608;23;20272;-78
2022/12/15 06:59:00;;;;;;;52.33;35.23;;;;;;;-0.15;100.00;98475.81;6188497;23;20204;-78
2022/12/15 07:01:28;;;;;;;47.93;34.10;;;;;;;-0.03;100.00;98479.63;6215008;23;20209;-78
2022/12/15 07:03:55;;;;;;;48.93;34.20;;;;;;;-0.02;100.00;98482.09;6215454;23;20268;-79
2022/12/15 07:06:22;;;;;;;45.43;31.90;;;;;;;0.09;100.00;98477.41;6214594;23;20276;-78
2022/12/15 07:08:52;;;;;;;48.10;33.20;;;;;;;0.11;100.00;98478.84;6215728;23;20209;-78
2022/12/15 07:11:20;;;;;;;49.07;32.17;;;;;;;0.09;100.00;98494.00;6215731;23;20597;-79
2022/12/15 07:13:51;;;;;;;52.37;33.87;;;;;;;0.10;100.00;98492.16;6215687;23;20658;-79
2022/12/15 07:16:18;;;;;;;48.43;32.57;;;;;;;0.11;100.00;98504.34;6212973;23;20591;-79
2022/12/15 07:18:45;;;;;;;49.60;33.30;;;;;;;0.22;100.00;98493.38;6213966;23;20209;-78
2022/12/15 07:21:12;;;;;;;49.57;33.50;;;;;;;0.29;100.00;98499.53;6215162;23;20582;-78
2022/12/15 07:23:38;;;;;;;51.07;33.93;;;;;;;0.29;100.00;98505.63;6213732;23;20212;-79
2022/12/15 07:26:20;;;;;;;51.70;33.63;;;;;;;0.27;100.00;98517.38;6212893;23;20205;-78
2022/12/15 07:28:47;;;;;;;51.33;35.37;;;;;;;0.23;100.00;98529.28;6215235;23;20229;-79
2022/12/15 07:31:14;;;;;;;52.80;34.87;;;;;;;0.16;100.00;98528.34;6215066;23;20276;-78
2022/12/15 07:33:41;;;;;;;50.03;34.43;;;;;;;0.26;100.00;98534.16;6214874;23;20213;-78
2022/12/15 07:36:08;;;;;;;51.40;34.33;;;;;;;0.29;100.00;98528.53;6214457;23;20216;-78
2022/12/15 07:38:35;;;;;;;50.20;32.43;;;;;;;0.39;100.00;98542.25;6215528;23;20237;-79
2022/12/15 07:41:03;;;;;;;47.97;33.67;;;;;;;0.42;100.00;98540.06;6214995;23;20212;-78
2022/12/15 07:43:31;;;;;;;51.47;34.93;;;;;;;0.42;100.00;98545.34;6214499;23;20225;-78
2022/12/15 07:45:58;;;;;;;46.97;32.87;;;;;;;0.46;100.00;98550.25;6214127;23;20197;-79
2022/12/15 07:48:26;;;;;;;47.50;33.67;;;;;;;0.47;100.00;98568.50;6188672;23;20205;-79
2022/12/15 07:50:56;;;;;;;49.70;33.83;;;;;;;0.58;100.00;98577.78;6213958;23;20201;-79
2022/12/15 07:53:33;;;;;;;51.37;34.90;;;;;;;0.54;100.00;98574.72;6215647;23;20284;-79
2022/12/15 07:56:00;;;;;;;51.00;33.40;;;;;;;0.57;100.00;98586.69;6214757;23;20212;-79
2022/12/15 07:58:36;;;;;;;53.33;34.70;;;;;;;0.58;100.00;98583.06;6214722;23;20739;-79
2022/12/15 08:01:05;;;;;;;56.67;36.93;;;;;;;0.61;100.00;98588.78;6188622;23;20205;-79
2022/12/15 08:03:32;;;;;;;53.50;36.60;;;;;;;0.62;100.00;98587.78;6213187;23;20209;-79
2022/12/15 08:06:05;;;;;;;55.80;36.57;;;;;;;0.66;100.00;98582.97;6213407;23;20205;-79
2022/12/15 08:08:33;;;;;;;51.40;35.53;;;;;;;0.59;100.00;98590.78;6213077;23;20233;-79
2022/12/15 08:11:05;;;;;;;53.53;36.33;;;;;;;0.60;100.00;98597.72;6213417;23;20193;-79
2022/12/15 08:13:33;;;;;;;51.50;35.13;;;;;;;0.66;100.00;98575.88;6213653;23;20227;-79
2022/12/15 08:16:20;;;;;;;45.97;32.67;;;;;;;0.74;100.00;98565.25;6214378;23;20220;-78
2022/12/15 08:18:47;;;;;;;52.60;33.90;;;;;;;0.86;100.00;98570.88;6214721;23;20197;-79
2022/12/15 08:21:14;;;;;;;52.40;34.00;;;;;;;0.85;100.00;98585.06;6215240;23;20209;-79
2022/12/15 08:23:41;;;;;;;45.77;32.73;;;;;;;0.95;100.00;98572.41;6213196;23;20204;-78
2022/12/15 08:26:13;;;;;;;47.30;32.43;;;;;;;1.08;100.00;98584.94;6214091;23;20213;-78
2022/12/15 08:28:40;;;;;;;52.40;33.10;;;;;;;1.01;100.00;98600.69;6221178;23;20260;-78
2022/12/15 08:34:10;;;;;;;49.43;34.20;;;;;;;1.07;100.00;98604.44;6262763;23;20208;-81
2022/12/15 08:36:37;;;;;;;49.33;33.00;;;;;;;1.25;100.00;98618.88;6207632;23;20208;-80
2022/12/15 08:39:04;;;;;;;50.50;33.87;;;;;;;1.35;100.00;98623.03;6205156;23;20232;-80
2022/12/15 08:41:31;;;;;;;48.37;34.30;;;;;;;1.46;100.00;98628.63;6207275;23;20200;-80
2022/12/15 08:43:59;;;;;;;53.93;36.97;;;;;;;1.56;100.00;98623.06;6257862;23;20232;-81
2022/12/15 08:46:28;;;;;;;50.90;34.30;;;;;;;1.73;100.00;98637.66;6236993;23;20256;-81
2022/12/15 08:48:56;;;;;;;49.07;34.47;;;;;;;1.94;100.00;98621.00;6231963;23;20208;-80
2022/12/15 08:51:24;;;;;;;48.83;35.00;;;;;;;2.08;100.00;98622.78;6233268;23;20228;-81
2022/12/15 08:53:52;;;;;;;46.27;33.20;;;;;;;2.16;100.00;98641.13;6234088;23;20228;-80
2022/12/15 08:56:23;;;;;;;46.63;32.83;;;;;;;2.16;100.00;98644.59;6233738;23;20199;-80
2022/12/15 09:14:10;;;;;;;48.87;33.37;;;;;;;2.30;100.00;98631.47;6259131;22;20223;-80
2022/12/15 09:16:38;;;;;;;48.37;33.57;;;;;;;2.38;100.00;98637.44;6239305;23;20231;-80
2022/12/15 09:19:18;;;;;;;51.70;35.80;;;;;;;2.30;100.00;98640.22;6220072;23;20212;-82
2022/12/15 09:21:49;;;;;;;51.53;32.60;;;;;;;2.34;100.00;98624.81;6217640;23;20189;-81
2022/12/15 09:24:16;;;;;;;50.10;33.13;;;;;;;2.35;100.00;98618.50;6234523;23;20215;-81
2022/12/15 09:26:58;;;;;;;47.83;33.17;;;;;;;2.48;100.00;98626.53;6212573;23;20213;-81
2022/12/15 09:29:25;;;;;;;47.67;32.63;;;;;;;2.51;100.00;98611.13;6211904;23;20579;-81
2022/12/15 09:31:51;;;;;;;49.53;33.57;;;;;;;2.59;100.00;98612.81;6232097;23;20253;-79
2022/12/15 09:34:18;;;;;;;47.33;32.93;;;;;;;2.66;100.00;98629.50;6260649;23;20264;-80
2022/12/15 09:36:45;;;;;;;48.90;32.60;;;;;;;2.71;100.00;98637.69;6208287;23;20583;-80
2022/12/15 09:39:13;;;;;;;45.03;33.13;;;;;;;2.69;100.00;98631.78;6228695;23;20235;-79
2022/12/15 09:41:56;;;;;;;48.03;32.80;;;;;;;2.78;100.00;98638.56;6231536;23;20205;-82
2022/12/15 09:44:23;;;;;;;47.70;32.77;;;;;;;2.90;100.00;98644.94;6258457;23;20507;-79
2022/12/15 09:50:01;;;;;;;46.10;33.43;;;;;;;3.12;100.00;98643.03;6269510;22;20207;-80
2022/12/15 09:52:42;;;;;;;46.47;33.47;;;;;;;3.30;100.00;98638.03;6228412;22;20200;-80
2022/12/15 09:55:21;;;;;;;47.37;32.07;;;;;;;3.17;100.00;98640.63;6255778;22;20235;-79
2022/12/15 09:57:59;;;;;;;49.37;33.63;;;;;;;3.19;100.00;98658.94;6279633;22;20208;-80
2022/12/15 10:00:39;;;;;;;50.30;34.20;;;;;;;3.10;100.00;98651.16;6280361;22;20253;-79
2022/12/15 10:03:45;;;;;;;46.47;33.37;;;;;;;3.09;100.00;98646.88;6256910;22;20527;-80
2022/12/15 10:06:28;;;;;;;46.37;32.20;;;;;;;2.79;100.00;98637.56;6176134;23;20297;-80
2022/12/15 10:09:28;;;;;;;45.53;31.50;;;;;;;2.07;100.00;98642.25;6282286;22;20215;-80
2022/12/15 10:12:01;;;;;;;45.97;32.23;;;;;;;1.91;100.00;98653.09;6243323;22;20208;-80
2022/12/15 10:14:34;;;;;;;45.83;32.27;;;;;;;2.20;100.00;98651.13;6289027;22;20253;-81
2022/12/15 10:17:10;;;;;;;48.73;33.30;;;;;;;2.12;100.00;98653.91;6265141;22;20230;-80
2022/12/15 10:19:52;;;;;;;50.50;33.70;;;;;;;1.99;100.00;98648.50;6258908;22;20204;-80
2022/12/15 10:22:23;;;;;;;48.27;33.63;;;;;;;2.29;100.00;98649.16;6292349;22;20188;-82
2022/12/15 10:24:51;;;;;;;50.37;33.17;;;;;;;2.07;100.00;98640.44;6263541;22;20216;-80
2022/12/15 10:27:54;;;;;;;53.07;33.70;;;;;;;2.31;100.00;98639.22;6260723;22;20240;-80
2022/12/15 10:30:21;;;;;;;50.73;33.57;;;;;;;2.43;100.00;98639.50;6284685;22;20211;-79
2022/12/15 10:33:02;;;;;;;46.87;33.13;;;;;;;2.31;100.00;98636.59;6258092;22;20207;-80
2022/12/15 10:35:34;;;;;;;50.63;33.80;;;;;;;2.53;100.00;98629.44;6239734;22;20207;-81
2022/12/15 10:38:08;;;;;;;48.43;32.70;;;;;;;2.63;100.00;98622.78;6263657;22;20186;-79
2022/12/15 10:40:54;;;;;;;49.33;33.67;;;;;;;2.47;100.00;98620.44;6259803;22;20208;-81
2022/12/15 10:43:26;;;;;;;67.70;40.17;;;;;;;2.60;100.00;98609.97;6264637;22;20228;-81
2022/12/15 10:46:13;;;;;;;71.40;41.13;;;;;;;2.57;100.00;98622.75;6287284;22;20204;-80
2022/12/15 10:48:50;;;;;;;57.23;37.73;;;;;;;2.41;100.00;98626.50;6238622;22;20212;-82
2022/12/15 10:51:32;;;;;;;62.00;38.37;;;;;;;2.66;100.00;98637.44;6291508;22;20259;-81
2022/12/15 10:54:14;;;;;;;59.03;37.23;;;;;;;2.76;100.00;98637.94;6234804;22;20215;-80
2022/12/15 10:57:15;;;;;;;52.83;35.27;;;;;;;2.91;100.00;98640.47;6291095;22;20214;-79
2022/12/15 10:59:45;;;;;;;54.80;35.13;;;;;;;2.84;100.00;98621.94;6291596;22;20208;-81
2022/12/15 11:02:19;;;;;;;50.33;33.87;;;;;;;2.82;100.00;98629.22;6252059;22;20201;-81
2022/12/15 11:05:16;;;;;;;47.27;32.53;;;;;;;2.56;100.00;98619.31;6271456;22;20263;-81
2022/12/15 11:07:52;;;;;;;51.97;33.07;;;;;;;2.46;100.00;98628.56;6263913;22;20264;-78
2022/12/15 12:53:31;;;;;;;51.17;34.03;;;;;;;2.19;100.00;98638.91;6245803;23;20342;-80
2022/12/15 12:55:59;;;;;;;52.63;33.93;;;;;;;2.29;100.00;98643.88;6221750;23;20209;-80
2022/12/15 12:58:31;;;;;;;52.80;35.20;;;;;;;2.28;100.00;98652.84;6246970;23;20217;-80
2022/12/15 13:01:04;;;;;;;52.73;35.30;;;;;;;2.31;100.00;98647.16;6221182;23;20215;-80
2022/12/15 13:03:31;;;;;;;51.43;33.57;;;;;;;2.32;100.00;98650.63;6247718;23;20200;-80
2022/12/15 13:05:58;;;;;;;52.40;35.43;;;;;;;2.25;100.00;98657.66;6221290;23;20206;-80
2022/12/15 13:08:27;;;;;;;50.93;34.17;;;;;;;2.24;100.00;98656.06;6222238;23;20207;-80
2022/12/15 23:26:49;;;;;;;94.50;41.50;;;;;;;-0.20;100.00;98257.88;6232595;22;20209;-80
2022/12/15 23:29:18;;;;;;;90.77;41.27;;;;;;;-0.18;100.00;98258.50;6241108;23;20190;-80
2022/12/15 23:31:48;;;;;;;89.90;40.77;;;;;;;-0.16;100.00;98271.47;6242924;23;20149;-82
2022/12/15 23:34:30;;;;;;;94.47;40.70;;;;;;;-0.16;100.00;98259.13;6214947;23;20209;-81
